sensor_id;sensor_type;location;lat;lon;timestamp;P1;durP1;ratioP1;P2;durP2;ratioP2
1685;SDS011;840;47.980;7.830;2022-08-04T00:00:27;2.23;;;2.03;;
1685;SDS011;840;47.980;7.830;2022-08-04T00:03:01;2.30;;;2.20;;
1685;SDS011;840;47.980;7.830;2022-08-04T00:05:39;1.87;;;1.77;;
1685;SDS011;840;47.980;7.830;2022-08-04T00:08:17;2.27;;;2.10;;
1685;SDS011;840;47.980;7.830;2022-08-04T00:10:53;2.70;;;2.50;;
1685;SDS011;840;47.980;7.830;2022-08-04T00:13:21;2.00;;;1.90;;
1685;SDS011;840;47.980;7.830;2022-08-04T00:15:51;2.00;;;1.90;;
1685;SDS011;840;47.980;7.830;2022-08-04T00:18:20;2.20;;;2.10;;
1685;SDS011;840;47.980;7.830;2022-08-04T00:20:52;2.33;;;1.93;;
1685;SDS011;840;47.980;7.830;2022-08-04T00:23:24;3.10;;;2.90;;
1685;SDS011;840;47.980;7.830;2022-08-04T00:25:53;5.13;;;2.80;;
1685;SDS011;840;47.980;7.830;2022-08-04T00:28:21;2.40;;;2.30;;
1685;SDS011;840;47.980;7.830;2022-08-04T00:30:49;1.60;;;1.30;;
1685;SDS011;840;47.980;7.830;2022-08-04T00:33:19;2.97;;;2.20;;
1685;SDS011;840;47.980;7.830;2022-08-04T00:35:47;2.40;;;1.63;;
1685;SDS011;840;47.980;7.830;2022-08-04T00:38:14;3.23;;;2.07;;
1685;SDS011;840;47.980;7.830;2022-08-04T00:40:46;2.20;;;2.00;;
1685;SDS011;840;47.980;7.830;2022-08-04T00:43:18;2.50;;;2.23;;
1685;SDS011;840;47.980;7.830;2022-08-04T00:45:56;4.13;;;1.83;;
1685;SDS011;840;47.980;7.830;2022-08-04T00:49:01;1.80;;;1.70;;
1685;SDS011;840;47.980;7.830;2022-08-04T00:51:36;2.07;;;1.97;;
1685;SDS011;840;47.980;7.830;2022-08-04T00:54:15;2.23;;;2.13;;
1685;SDS011;840;47.980;7.830;2022-08-04T00:59:50;1.73;;;1.63;;
1685;SDS011;840;47.980;7.830;2022-08-04T01:02:31;3.27;;;2.40;;
1685;SDS011;840;47.980;7.830;2022-08-04T01:05:03;2.07;;;1.80;;
1685;SDS011;840;47.980;7.830;2022-08-04T01:10:28;2.30;;;2.10;;
1685;SDS011;840;47.980;7.830;2022-08-04T01:13:15;2.13;;;2.03;;
1685;SDS011;840;47.980;7.830;2022-08-04T01:16:03;2.20;;;1.90;;
1685;SDS011;840;47.980;7.830;2022-08-04T01:18:40;2.47;;;2.27;;
1685;SDS011;840;47.980;7.830;2022-08-04T01:21:21;2.40;;;2.20;;
1685;SDS011;840;47.980;7.830;2022-08-04T01:24:29;2.83;;;2.40;;
1685;SDS011;840;47.980;7.830;2022-08-04T01:27:17;2.83;;;2.07;;
1685;SDS011;840;47.980;7.830;2022-08-04T01:29:58;2.13;;;1.93;;
1685;SDS011;840;47.980;7.830;2022-08-04T01:32:26;1.83;;;1.40;;
1685;SDS011;840;47.980;7.830;2022-08-04T01:35:00;1.90;;;1.60;;
1685;SDS011;840;47.980;7.830;2022-08-04T01:37:41;1.90;;;1.80;;
1685;SDS011;840;47.980;7.830;2022-08-04T01:40:14;2.30;;;1.77;;
1685;SDS011;840;47.980;7.830;2022-08-04T01:42:42;2.63;;;2.00;;
1685;SDS011;840;47.980;7.830;2022-08-04T01:45:12;2.60;;;2.40;;
1685;SDS011;840;47.980;7.830;2022-08-04T01:47:42;2.60;;;1.80;;
1685;SDS011;840;47.980;7.830;2022-08-04T01:50:18;4.60;;;1.97;;
1685;SDS011;840;47.980;7.830;2022-08-04T01:52:46;4.20;;;1.77;;
1685;SDS011;840;47.980;7.830;2022-08-04T01:55:14;1.87;;;1.73;;
1685;SDS011;840;47.980;7.830;2022-08-04T01:57:42;2.43;;;2.23;;
1685;SDS011;840;47.980;7.830;2022-08-04T02:00:15;2.57;;;1.70;;
1685;SDS011;840;47.980;7.830;2022-08-04T02:02:44;3.23;;;2.20;;
1685;SDS011;840;47.980;7.830;2022-08-04T02:05:13;1.80;;;1.67;;
1685;SDS011;840;47.980;7.830;2022-08-04T02:10:35;3.67;;;3.03;;
1685;SDS011;840;47.980;7.830;2022-08-04T02:13:20;1.80;;;1.70;;
1685;SDS011;840;47.980;7.830;2022-08-04T02:15:57;2.10;;;2.00;;
1685;SDS011;840;47.980;7.830;2022-08-04T02:18:29;1.83;;;1.73;;
1685;SDS011;840;47.980;7.830;2022-08-04T02:20:58;1.67;;;1.57;;
1685;SDS011;840;47.980;7.830;2022-08-04T02:23:30;2.80;;;1.50;;
1685;SDS011;840;47.980;7.830;2022-08-04T02:26:01;1.63;;;1.43;;
1685;SDS011;840;47.980;7.830;2022-08-04T02:28:32;1.57;;;1.47;;
1685;SDS011;840;47.980;7.830;2022-08-04T02:31:07;1.37;;;1.27;;
1685;SDS011;840;47.980;7.830;2022-08-04T02:33:42;1.83;;;1.57;;
1685;SDS011;840;47.980;7.830;2022-08-04T02:36:20;1.63;;;1.53;;
1685;SDS011;840;47.980;7.830;2022-08-04T02:38:59;1.73;;;1.63;;
1685;SDS011;840;47.980;7.830;2022-08-04T02:41:28;1.90;;;1.70;;
1685;SDS011;840;47.980;7.830;2022-08-04T02:43:56;1.77;;;1.67;;
1685;SDS011;840;47.980;7.830;2022-08-04T02:46:26;2.00;;;1.90;;
1685;SDS011;840;47.980;7.830;2022-08-04T02:48:54;1.80;;;1.70;;
1685;SDS011;840;47.980;7.830;2022-08-04T02:51:23;2.70;;;1.70;;
1685;SDS011;840;47.980;7.830;2022-08-04T02:53:54;1.47;;;1.37;;
1685;SDS011;840;47.980;7.830;2022-08-04T02:56:22;3.23;;;2.00;;
1685;SDS011;840;47.980;7.830;2022-08-04T02:58:51;1.50;;;1.40;;
1685;SDS011;840;47.980;7.830;2022-08-04T03:01:21;2.00;;;1.90;;
1685;SDS011;840;47.980;7.830;2022-08-04T03:03:52;1.70;;;1.60;;
1685;SDS011;840;47.980;7.830;2022-08-04T03:06:42;1.53;;;1.43;;
1685;SDS011;840;47.980;7.830;2022-08-04T03:09:35;1.80;;;1.53;;
1685;SDS011;840;47.980;7.830;2022-08-04T03:12:38;1.60;;;1.50;;
1685;SDS011;840;47.980;7.830;2022-08-04T03:15:39;2.00;;;1.80;;
1685;SDS011;840;47.980;7.830;2022-08-04T03:18:35;1.80;;;1.70;;
1685;SDS011;840;47.980;7.830;2022-08-04T03:21:32;2.30;;;2.20;;
1685;SDS011;840;47.980;7.830;2022-08-04T03:24:18;1.63;;;1.53;;
1685;SDS011;840;47.980;7.830;2022-08-04T03:27:31;3.50;;;2.37;;
1685;SDS011;840;47.980;7.830;2022-08-04T03:30:19;2.20;;;2.00;;
1685;SDS011;840;47.980;7.830;2022-08-04T03:33:13;1.77;;;1.67;;
1685;SDS011;840;47.980;7.830;2022-08-04T03:36:05;1.73;;;1.63;;
1685;SDS011;840;47.980;7.830;2022-08-04T03:38:58;2.20;;;1.80;;
1685;SDS011;840;47.980;7.830;2022-08-04T03:41:47;1.93;;;1.80;;
1685;SDS011;840;47.980;7.830;2022-08-04T03:44:37;2.20;;;2.00;;
1685;SDS011;840;47.980;7.830;2022-08-04T03:53:47;2.30;;;2.10;;
1685;SDS011;840;47.980;7.830;2022-08-04T03:56:40;2.17;;;1.97;;
1685;SDS011;840;47.980;7.830;2022-08-04T03:59:33;2.53;;;2.27;;
1685;SDS011;840;47.980;7.830;2022-08-04T04:02:24;2.30;;;2.10;;
1685;SDS011;840;47.980;7.830;2022-08-04T04:05:25;2.00;;;1.80;;
1685;SDS011;840;47.980;7.830;2022-08-04T04:08:08;1.67;;;1.57;;
1685;SDS011;840;47.980;7.830;2022-08-04T04:13:51;2.50;;;2.23;;
1685;SDS011;840;47.980;7.830;2022-08-04T04:16:46;2.40;;;1.97;;
1685;SDS011;840;47.980;7.830;2022-08-04T04:19:28;3.67;;;2.27;;
1685;SDS011;840;47.980;7.830;2022-08-04T04:22:20;3.50;;;2.27;;
1685;SDS011;840;47.980;7.830;2022-08-04T04:25:10;2.10;;;1.90;;
1685;SDS011;840;47.980;7.830;2022-08-04T04:27:48;2.33;;;2.13;;
1685;SDS011;840;47.980;7.830;2022-08-04T04:30:35;2.60;;;1.60;;
1685;SDS011;840;47.980;7.830;2022-08-04T04:33:15;1.90;;;1.80;;
1685;SDS011;840;47.980;7.830;2022-08-04T04:35:58;2.93;;;2.30;;
1685;SDS011;840;47.980;7.830;2022-08-04T04:38:40;4.03;;;2.40;;
1685;SDS011;840;47.980;7.830;2022-08-04T04:41:20;3.57;;;2.40;;
1685;SDS011;840;47.980;7.830;2022-08-04T04:44:11;2.00;;;1.90;;
1685;SDS011;840;47.980;7.830;2022-08-04T04:47:00;2.60;;;2.27;;
1685;SDS011;840;47.980;7.830;2022-08-04T04:49:36;1.87;;;1.77;;
1685;SDS011;840;47.980;7.830;2022-08-04T04:52:12;3.63;;;2.30;;
1685;SDS011;840;47.980;7.830;2022-08-04T04:54:50;3.47;;;2.00;;
1685;SDS011;840;47.980;7.830;2022-08-04T04:57:24;2.30;;;2.17;;
1685;SDS011;840;47.980;7.830;2022-08-04T05:00:01;2.50;;;2.30;;
1685;SDS011;840;47.980;7.830;2022-08-04T05:02:35;3.43;;;2.07;;
1685;SDS011;840;47.980;7.830;2022-08-04T05:05:26;2.67;;;2.47;;
1685;SDS011;840;47.980;7.830;2022-08-04T05:10:50;7.60;;;2.63;;
1685;SDS011;840;47.980;7.830;2022-08-04T05:13:31;2.80;;;2.33;;
1685;SDS011;840;47.980;7.830;2022-08-04T05:16:04;2.57;;;2.37;;
1685;SDS011;840;47.980;7.830;2022-08-04T05:18:37;4.03;;;2.70;;
1685;SDS011;840;47.980;7.830;2022-08-04T05:21:25;3.43;;;3.13;;
1685;SDS011;840;47.980;7.830;2022-08-04T05:24:03;2.30;;;2.20;;
1685;SDS011;840;47.980;7.830;2022-08-04T05:26:34;2.50;;;2.10;;
1685;SDS011;840;47.980;7.830;2022-08-04T05:29:06;2.97;;;2.73;;
1685;SDS011;840;47.980;7.830;2022-08-04T05:31:37;2.50;;;2.30;;
1685;SDS011;840;47.980;7.830;2022-08-04T05:34:10;3.17;;;2.60;;
1685;SDS011;840;47.980;7.830;2022-08-04T05:36:39;3.10;;;2.80;;
1685;SDS011;840;47.980;7.830;2022-08-04T05:39:09;3.40;;;3.10;;
1685;SDS011;840;47.980;7.830;2022-08-04T05:41:40;4.47;;;2.33;;
1685;SDS011;840;47.980;7.830;2022-08-04T05:44:09;4.70;;;2.50;;
1685;SDS011;840;47.980;7.830;2022-08-04T05:46:37;3.50;;;2.00;;
1685;SDS011;840;47.980;7.830;2022-08-04T05:49:05;3.30;;;1.93;;
1685;SDS011;840;47.980;7.830;2022-08-04T05:51:35;2.50;;;2.07;;
1685;SDS011;840;47.980;7.830;2022-08-04T05:54:02;2.63;;;2.43;;
1685;SDS011;840;47.980;7.830;2022-08-04T05:56:32;3.80;;;1.93;;
1685;SDS011;840;47.980;7.830;2022-08-04T05:59:00;3.17;;;1.90;;
1685;SDS011;840;47.980;7.830;2022-08-04T06:01:29;3.27;;;2.10;;
1685;SDS011;840;47.980;7.830;2022-08-04T06:03:57;2.50;;;2.30;;
1685;SDS011;840;47.980;7.830;2022-08-04T06:06:26;2.33;;;1.87;;
1685;SDS011;840;47.980;7.830;2022-08-04T06:08:57;2.87;;;2.67;;
1685;SDS011;840;47.980;7.830;2022-08-04T06:11:24;2.70;;;1.90;;
1685;SDS011;840;47.980;7.830;2022-08-04T06:13:53;3.30;;;3.10;;
1685;SDS011;840;47.980;7.830;2022-08-04T06:16:23;3.03;;;2.63;;
1685;SDS011;840;47.980;7.830;2022-08-04T06:18:52;4.23;;;3.67;;
1685;SDS011;840;47.980;7.830;2022-08-04T06:21:21;3.63;;;2.97;;
1685;SDS011;840;47.980;7.830;2022-08-04T06:23:52;3.37;;;3.17;;
1685;SDS011;840;47.980;7.830;2022-08-04T06:26:22;3.93;;;2.90;;
1685;SDS011;840;47.980;7.830;2022-08-04T06:28:50;4.20;;;3.80;;
1685;SDS011;840;47.980;7.830;2022-08-04T06:31:18;3.07;;;2.87;;
1685;SDS011;840;47.980;7.830;2022-08-04T06:33:57;5.63;;;3.50;;
1685;SDS011;840;47.980;7.830;2022-08-04T06:36:26;3.20;;;2.90;;
1685;SDS011;840;47.980;7.830;2022-08-04T06:38:53;5.00;;;2.83;;
1685;SDS011;840;47.980;7.830;2022-08-04T06:41:23;3.40;;;3.10;;
1685;SDS011;840;47.980;7.830;2022-08-04T06:43:50;3.17;;;2.90;;
1685;SDS011;840;47.980;7.830;2022-08-04T06:46:17;13.27;;;12.07;;
1685;SDS011;840;47.980;7.830;2022-08-04T06:48:45;5.20;;;4.27;;
1685;SDS011;840;47.980;7.830;2022-08-04T06:51:13;3.67;;;3.33;;
1685;SDS011;840;47.980;7.830;2022-08-04T06:53:40;3.27;;;2.97;;
1685;SDS011;840;47.980;7.830;2022-08-04T06:56:07;5.00;;;3.90;;
1685;SDS011;840;47.980;7.830;2022-08-04T06:58:38;4.63;;;2.57;;
1685;SDS011;840;47.980;7.830;2022-08-04T07:01:05;9.20;;;3.23;;
1685;SDS011;840;47.980;7.830;2022-08-04T07:03:33;4.50;;;3.73;;
1685;SDS011;840;47.980;7.830;2022-08-04T07:06:02;6.57;;;3.10;;
1685;SDS011;840;47.980;7.830;2022-08-04T07:08:29;3.30;;;3.03;;
1685;SDS011;840;47.980;7.830;2022-08-04T07:10:56;3.63;;;3.07;;
1685;SDS011;840;47.980;7.830;2022-08-04T07:13:24;2.60;;;2.40;;
1685;SDS011;840;47.980;7.830;2022-08-04T07:15:54;3.20;;;3.00;;
1685;SDS011;840;47.980;7.830;2022-08-04T07:18:22;2.77;;;2.33;;
1685;SDS011;840;47.980;7.830;2022-08-04T07:20:49;4.90;;;2.53;;
1685;SDS011;840;47.980;7.830;2022-08-04T07:23:21;3.70;;;3.20;;
1685;SDS011;840;47.980;7.830;2022-08-04T07:25:49;2.77;;;2.43;;
1685;SDS011;840;47.980;7.830;2022-08-04T07:28:17;3.23;;;2.93;;
1685;SDS011;840;47.980;7.830;2022-08-04T07:30:44;3.23;;;2.60;;
1685;SDS011;840;47.980;7.830;2022-08-04T07:33:13;3.33;;;2.83;;
1685;SDS011;840;47.980;7.830;2022-08-04T07:35:41;3.03;;;2.73;;
1685;SDS011;840;47.980;7.830;2022-08-04T07:38:09;3.00;;;2.73;;
1685;SDS011;840;47.980;7.830;2022-08-04T07:40:36;4.00;;;3.20;;
1685;SDS011;840;47.980;7.830;2022-08-04T07:43:04;3.33;;;3.03;;
1685;SDS011;840;47.980;7.830;2022-08-04T07:45:31;3.17;;;2.97;;
1685;SDS011;840;47.980;7.830;2022-08-04T07:48:16;2.60;;;2.40;;
1685;SDS011;840;47.980;7.830;2022-08-04T07:50:46;4.90;;;2.50;;
1685;SDS011;840;47.980;7.830;2022-08-04T07:53:14;3.30;;;3.00;;
1685;SDS011;840;47.980;7.830;2022-08-04T07:55:41;4.07;;;2.97;;
1685;SDS011;840;47.980;7.830;2022-08-04T07:58:10;3.03;;;2.77;;
1685;SDS011;840;47.980;7.830;2022-08-04T08:00:37;3.10;;;2.83;;
1685;SDS011;840;47.980;7.830;2022-08-04T08:03:04;4.13;;;2.63;;
1685;SDS011;840;47.980;7.830;2022-08-04T08:05:34;5.20;;;2.97;;
1685;SDS011;840;47.980;7.830;2022-08-04T08:08:01;3.77;;;3.40;;
1685;SDS011;840;47.980;7.830;2022-08-04T08:10:28;3.23;;;3.00;;
1685;SDS011;840;47.980;7.830;2022-08-04T08:12:54;7.03;;;3.10;;
1685;SDS011;840;47.980;7.830;2022-08-04T08:15:22;5.57;;;3.80;;
1685;SDS011;840;47.980;7.830;2022-08-04T08:17:50;3.37;;;3.17;;
1685;SDS011;840;47.980;7.830;2022-08-04T08:20:17;3.30;;;2.60;;
1685;SDS011;840;47.980;7.830;2022-08-04T08:22:45;3.33;;;3.00;;
1685;SDS011;840;47.980;7.830;2022-08-04T08:25:13;3.43;;;3.23;;
1685;SDS011;840;47.980;7.830;2022-08-04T08:27:39;5.80;;;2.90;;
1685;SDS011;840;47.980;7.830;2022-08-04T08:30:06;2.93;;;2.73;;
1685;SDS011;840;47.980;7.830;2022-08-04T08:32:34;3.97;;;3.50;;
1685;SDS011;840;47.980;7.830;2022-08-04T08:35:00;3.80;;;2.73;;
1685;SDS011;840;47.980;7.830;2022-08-04T08:37:30;2.90;;;2.70;;
1685;SDS011;840;47.980;7.830;2022-08-04T08:40:11;3.17;;;2.90;;
1685;SDS011;840;47.980;7.830;2022-08-04T08:42:59;3.93;;;3.10;;
1685;SDS011;840;47.980;7.830;2022-08-04T08:45:51;2.97;;;2.77;;
1685;SDS011;840;47.980;7.830;2022-08-04T08:51:37;2.90;;;2.20;;
1685;SDS011;840;47.980;7.830;2022-08-04T08:54:23;3.50;;;2.47;;
1685;SDS011;840;47.980;7.830;2022-08-04T08:57:06;2.53;;;2.33;;
1685;SDS011;840;47.980;7.830;2022-08-04T08:59:47;2.80;;;2.60;;
1685;SDS011;840;47.980;7.830;2022-08-04T09:02:27;2.00;;;1.90;;
1685;SDS011;840;47.980;7.830;2022-08-04T09:05:20;2.97;;;2.77;;
1685;SDS011;840;47.980;7.830;2022-08-04T09:08:13;5.87;;;3.57;;
1685;SDS011;840;47.980;7.830;2022-08-04T09:10:47;4.87;;;2.87;;
1685;SDS011;840;47.980;7.830;2022-08-04T09:13:22;4.23;;;2.50;;
1685;SDS011;840;47.980;7.830;2022-08-04T09:15:53;2.43;;;2.23;;
1685;SDS011;840;47.980;7.830;2022-08-04T09:18:30;6.97;;;2.90;;
1685;SDS011;840;47.980;7.830;2022-08-04T09:21:03;4.17;;;2.40;;
1685;SDS011;840;47.980;7.830;2022-08-04T09:23:39;2.40;;;2.13;;
1685;SDS011;840;47.980;7.830;2022-08-04T09:26:18;2.47;;;2.27;;
1685;SDS011;840;47.980;7.830;2022-08-04T09:28:53;2.10;;;2.00;;
1685;SDS011;840;47.980;7.830;2022-08-04T09:31:28;4.70;;;2.30;;
1685;SDS011;840;47.980;7.830;2022-08-04T09:34:00;2.67;;;2.57;;
1685;SDS011;840;47.980;7.830;2022-08-04T09:36:35;3.70;;;2.00;;
1685;SDS011;840;47.980;7.830;2022-08-04T09:39:09;2.17;;;2.07;;
1685;SDS011;840;47.980;7.830;2022-08-04T09:41:45;3.00;;;1.60;;
1685;SDS011;840;47.980;7.830;2022-08-04T09:44:23;2.37;;;2.27;;
1685;SDS011;840;47.980;7.830;2022-08-04T09:46:56;2.00;;;1.90;;
1685;SDS011;840;47.980;7.830;2022-08-04T09:49:32;2.27;;;2.17;;
1685;SDS011;840;47.980;7.830;2022-08-04T09:52:05;2.50;;;1.97;;
1685;SDS011;840;47.980;7.830;2022-08-04T09:54:40;2.00;;;1.63;;
1685;SDS011;840;47.980;7.830;2022-08-04T09:57:16;3.50;;;2.63;;
1685;SDS011;840;47.980;7.830;2022-08-04T09:59:56;1.30;;;1.30;;
1685;SDS011;840;47.980;7.830;2022-08-04T10:02:31;1.87;;;1.77;;
1685;SDS011;840;47.980;7.830;2022-08-04T10:05:02;1.70;;;1.33;;
1685;SDS011;840;47.980;7.830;2022-08-04T10:07:43;1.53;;;1.43;;
1685;SDS011;840;47.980;7.830;2022-08-04T10:10:20;1.43;;;1.30;;
1685;SDS011;840;47.980;7.830;2022-08-04T10:13:04;2.80;;;1.40;;
1685;SDS011;840;47.980;7.830;2022-08-04T10:15:49;1.40;;;1.30;;
1685;SDS011;840;47.980;7.830;2022-08-04T10:18:27;1.03;;;1.03;;
1685;SDS011;840;47.980;7.830;2022-08-04T10:21:07;3.67;;;1.50;;
1685;SDS011;840;47.980;7.830;2022-08-04T10:23:41;1.20;;;1.00;;
1685;SDS011;840;47.980;7.830;2022-08-04T10:26:24;3.83;;;1.50;;
1685;SDS011;840;47.980;7.830;2022-08-04T10:28:59;1.13;;;1.10;;
1685;SDS011;840;47.980;7.830;2022-08-04T10:31:32;1.47;;;1.37;;
1685;SDS011;840;47.980;7.830;2022-08-04T10:34:05;1.33;;;1.10;;
1685;SDS011;840;47.980;7.830;2022-08-04T10:36:43;1.53;;;1.43;;
1685;SDS011;840;47.980;7.830;2022-08-04T10:39:17;1.37;;;1.27;;
1685;SDS011;840;47.980;7.830;2022-08-04T10:41:51;1.30;;;1.10;;
1685;SDS011;840;47.980;7.830;2022-08-04T10:44:25;1.30;;;1.20;;
1685;SDS011;840;47.980;7.830;2022-08-04T10:47:03;1.07;;;1.03;;
1685;SDS011;840;47.980;7.830;2022-08-04T10:49:33;2.30;;;1.53;;
1685;SDS011;840;47.980;7.830;2022-08-04T10:52:04;1.60;;;1.23;;
1685;SDS011;840;47.980;7.830;2022-08-04T10:54:37;1.30;;;1.20;;
1685;SDS011;840;47.980;7.830;2022-08-04T10:57:11;1.93;;;1.13;;
1685;SDS011;840;47.980;7.830;2022-08-04T10:59:42;1.33;;;1.17;;
1685;SDS011;840;47.980;7.830;2022-08-04T11:02:22;1.40;;;1.30;;
1685;SDS011;840;47.980;7.830;2022-08-04T11:04:59;1.10;;;1.00;;
1685;SDS011;840;47.980;7.830;2022-08-04T11:07:36;3.93;;;1.50;;
1685;SDS011;840;47.980;7.830;2022-08-04T11:10:06;0.87;;;0.87;;
1685;SDS011;840;47.980;7.830;2022-08-04T11:12:34;2.77;;;1.33;;
1685;SDS011;840;47.980;7.830;2022-08-04T11:15:03;3.07;;;1.40;;
1685;SDS011;840;47.980;7.830;2022-08-04T11:17:36;1.10;;;1.00;;
1685;SDS011;840;47.980;7.830;2022-08-04T11:20:10;1.17;;;1.00;;
1685;SDS011;840;47.980;7.830;2022-08-04T11:22:41;1.20;;;1.10;;
1685;SDS011;840;47.980;7.830;2022-08-04T11:25:16;4.47;;;1.57;;
1685;SDS011;840;47.980;7.830;2022-08-04T11:27:49;1.60;;;1.50;;
1685;SDS011;840;47.980;7.830;2022-08-04T11:30:20;2.20;;;1.30;;
1685;SDS011;840;47.980;7.830;2022-08-04T11:32:55;1.10;;;1.00;;
1685;SDS011;840;47.980;7.830;2022-08-04T11:35:31;1.20;;;1.20;;
1685;SDS011;840;47.980;7.830;2022-08-04T11:38:05;1.33;;;1.23;;
1685;SDS011;840;47.980;7.830;2022-08-04T11:40:39;1.93;;;1.77;;
1685;SDS011;840;47.980;7.830;2022-08-04T11:43:08;1.40;;;1.30;;
1685;SDS011;840;47.980;7.830;2022-08-04T11:45:44;1.80;;;1.37;;
1685;SDS011;840;47.980;7.830;2022-08-04T11:48:18;1.30;;;1.20;;
1685;SDS011;840;47.980;7.830;2022-08-04T11:50:50;1.70;;;1.20;;
1685;SDS011;840;47.980;7.830;2022-08-04T11:53:21;1.83;;;1.40;;
1685;SDS011;840;47.980;7.830;2022-08-04T11:55:52;1.00;;;0.90;;
1685;SDS011;840;47.980;7.830;2022-08-04T11:58:23;1.30;;;1.20;;
1685;SDS011;840;47.980;7.830;2022-08-04T12:00:51;1.60;;;1.30;;
1685;SDS011;840;47.980;7.830;2022-08-04T12:03:34;1.00;;;1.00;;
1685;SDS011;840;47.980;7.830;2022-08-04T12:06:09;1.53;;;1.43;;
1685;SDS011;840;47.980;7.830;2022-08-04T12:08:50;4.80;;;1.60;;
1685;SDS011;840;47.980;7.830;2022-08-04T12:11:29;1.20;;;1.10;;
1685;SDS011;840;47.980;7.830;2022-08-04T12:14:09;1.23;;;1.13;;
1685;SDS011;840;47.980;7.830;2022-08-04T12:16:47;4.13;;;1.80;;
1685;SDS011;840;47.980;7.830;2022-08-04T12:19:27;3.20;;;1.50;;
1685;SDS011;840;47.980;7.830;2022-08-04T12:21:58;3.33;;;1.50;;
1685;SDS011;840;47.980;7.830;2022-08-04T12:24:32;1.53;;;1.40;;
1685;SDS011;840;47.980;7.830;2022-08-04T12:27:03;1.27;;;1.13;;
1685;SDS011;840;47.980;7.830;2022-08-04T12:29:35;5.37;;;1.20;;
1685;SDS011;840;47.980;7.830;2022-08-04T12:32:10;4.17;;;1.40;;
1685;SDS011;840;47.980;7.830;2022-08-04T12:34:47;2.53;;;1.07;;
1685;SDS011;840;47.980;7.830;2022-08-04T12:37:25;1.30;;;1.20;;
1685;SDS011;840;47.980;7.830;2022-08-04T12:40:00;1.40;;;1.30;;
1685;SDS011;840;47.980;7.830;2022-08-04T12:42:32;2.23;;;1.50;;
1685;SDS011;840;47.980;7.830;2022-08-04T12:45:05;1.87;;;1.17;;
1685;SDS011;840;47.980;7.830;2022-08-04T12:47:34;1.80;;;1.30;;
1685;SDS011;840;47.980;7.830;2022-08-04T12:50:03;2.30;;;1.13;;
1685;SDS011;840;47.980;7.830;2022-08-04T12:52:39;1.53;;;1.30;;
1685;SDS011;840;47.980;7.830;2022-08-04T12:55:12;1.43;;;1.27;;
1685;SDS011;840;47.980;7.830;2022-08-04T12:57:40;1.40;;;1.30;;
1685;SDS011;840;47.980;7.830;2022-08-04T13:00:09;1.30;;;1.20;;
1685;SDS011;840;47.980;7.830;2022-08-04T13:02:37;1.50;;;1.40;;
1685;SDS011;840;47.980;7.830;2022-08-04T13:05:08;1.57;;;1.03;;
1685;SDS011;840;47.980;7.830;2022-08-04T13:07:39;1.37;;;1.20;;
1685;SDS011;840;47.980;7.830;2022-08-04T13:10:12;1.87;;;1.10;;
1685;SDS011;840;47.980;7.830;2022-08-04T13:12:40;1.23;;;1.10;;
1685;SDS011;840;47.980;7.830;2022-08-04T13:15:16;3.37;;;1.43;;
1685;SDS011;840;47.980;7.830;2022-08-04T13:17:48;1.20;;;1.00;;
1685;SDS011;840;47.980;7.830;2022-08-04T13:20:24;1.20;;;1.10;;
1685;SDS011;840;47.980;7.830;2022-08-04T13:22:56;1.07;;;0.90;;
1685;SDS011;840;47.980;7.830;2022-08-04T13:25:31;1.30;;;1.20;;
1685;SDS011;840;47.980;7.830;2022-08-04T13:28:00;5.23;;;1.40;;
1685;SDS011;840;47.980;7.830;2022-08-04T13:30:27;1.30;;;1.20;;
1685;SDS011;840;47.980;7.830;2022-08-04T13:32:58;1.50;;;1.40;;
1685;SDS011;840;47.980;7.830;2022-08-04T13:35:28;1.90;;;1.80;;
1685;SDS011;840;47.980;7.830;2022-08-04T13:37:57;1.43;;;1.20;;
1685;SDS011;840;47.980;7.830;2022-08-04T13:40:25;1.63;;;0.80;;
1685;SDS011;840;47.980;7.830;2022-08-04T13:42:53;1.57;;;1.47;;
1685;SDS011;840;47.980;7.830;2022-08-04T13:45:22;1.30;;;1.30;;
1685;SDS011;840;47.980;7.830;2022-08-04T13:47:50;2.00;;;1.33;;
1685;SDS011;840;47.980;7.830;2022-08-04T13:50:23;3.60;;;1.30;;
1685;SDS011;840;47.980;7.830;2022-08-04T13:52:53;1.20;;;1.10;;
1685;SDS011;840;47.980;7.830;2022-08-04T13:55:23;1.80;;;1.23;;
1685;SDS011;840;47.980;7.830;2022-08-04T13:57:54;2.77;;;1.27;;
1685;SDS011;840;47.980;7.830;2022-08-04T14:00:36;0.90;;;0.90;;
1685;SDS011;840;47.980;7.830;2022-08-04T14:03:07;0.97;;;0.97;;
1685;SDS011;840;47.980;7.830;2022-08-04T14:05:34;1.40;;;1.30;;
1685;SDS011;840;47.980;7.830;2022-08-04T14:08:06;1.53;;;0.83;;
1685;SDS011;840;47.980;7.830;2022-08-04T14:10:36;2.93;;;1.37;;
1685;SDS011;840;47.980;7.830;2022-08-04T14:13:04;1.20;;;1.10;;
1685;SDS011;840;47.980;7.830;2022-08-04T14:15:34;2.27;;;1.40;;
1685;SDS011;840;47.980;7.830;2022-08-04T14:18:16;3.03;;;1.17;;
1685;SDS011;840;47.980;7.830;2022-08-04T14:20:57;1.00;;;0.90;;
1685;SDS011;840;47.980;7.830;2022-08-04T14:23:26;1.50;;;1.43;;
1685;SDS011;840;47.980;7.830;2022-08-04T14:25:54;2.83;;;0.90;;
1685;SDS011;840;47.980;7.830;2022-08-04T14:28:27;2.47;;;0.87;;
1685;SDS011;840;47.980;7.830;2022-08-04T14:31:08;1.27;;;1.17;;
1685;SDS011;840;47.980;7.830;2022-08-04T14:33:36;1.33;;;1.07;;
1685;SDS011;840;47.980;7.830;2022-08-04T14:36:03;1.40;;;1.20;;
1685;SDS011;840;47.980;7.830;2022-08-04T14:38:42;1.00;;;1.00;;
1685;SDS011;840;47.980;7.830;2022-08-04T14:41:11;0.87;;;0.80;;
1685;SDS011;840;47.980;7.830;2022-08-04T14:43:40;1.37;;;1.10;;
1685;SDS011;840;47.980;7.830;2022-08-04T14:46:12;1.27;;;1.17;;
1685;SDS011;840;47.980;7.830;2022-08-04T14:48:40;3.47;;;0.90;;
1685;SDS011;840;47.980;7.830;2022-08-04T14:51:32;1.20;;;1.20;;
1685;SDS011;840;47.980;7.830;2022-08-04T14:54:02;3.53;;;1.30;;
1685;SDS011;840;47.980;7.830;2022-08-04T14:56:30;1.50;;;1.10;;
1685;SDS011;840;47.980;7.830;2022-08-04T14:58:58;1.17;;;1.07;;
1685;SDS011;840;47.980;7.830;2022-08-04T15:01:27;0.93;;;0.93;;
1685;SDS011;840;47.980;7.830;2022-08-04T15:03:55;1.67;;;1.20;;
1685;SDS011;840;47.980;7.830;2022-08-04T15:06:23;1.70;;;1.15;;
1685;SDS011;840;47.980;7.830;2022-08-04T15:08:52;1.48;;;0.90;;
1685;SDS011;840;47.980;7.830;2022-08-04T15:11:21;1.13;;;1.13;;
1685;SDS011;840;47.980;7.830;2022-08-04T15:13:48;1.30;;;1.20;;
1685;SDS011;840;47.980;7.830;2022-08-04T15:16:16;1.10;;;1.00;;
1685;SDS011;840;47.980;7.830;2022-08-04T15:18:42;1.00;;;1.00;;
1685;SDS011;840;47.980;7.830;2022-08-04T15:21:09;1.52;;;1.42;;
1685;SDS011;840;47.980;7.830;2022-08-04T15:23:39;1.85;;;1.75;;
1685;SDS011;840;47.980;7.830;2022-08-04T15:26:08;1.55;;;1.10;;
1685;SDS011;840;47.980;7.830;2022-08-04T15:28:51;1.20;;;1.13;;
1685;SDS011;840;47.980;7.830;2022-08-04T15:31:22;2.95;;;1.20;;
1685;SDS011;840;47.980;7.830;2022-08-04T15:33:50;1.80;;;1.70;;
1685;SDS011;840;47.980;7.830;2022-08-04T15:36:20;2.60;;;1.05;;
1685;SDS011;840;47.980;7.830;2022-08-04T15:38:58;5.45;;;1.20;;
1685;SDS011;840;47.980;7.830;2022-08-04T15:41:33;1.73;;;1.15;;
1685;SDS011;840;47.980;7.830;2022-08-04T15:47:08;1.60;;;0.95;;
1685;SDS011;840;47.980;7.830;2022-08-04T15:49:37;2.13;;;1.10;;
1685;SDS011;840;47.980;7.830;2022-08-04T15:52:05;1.10;;;1.00;;
1685;SDS011;840;47.980;7.830;2022-08-04T15:54:33;1.08;;;1.05;;
1685;SDS011;840;47.980;7.830;2022-08-04T15:57:01;1.25;;;0.93;;
1685;SDS011;840;47.980;7.830;2022-08-04T16:08:14;2.42;;;1.95;;
1685;SDS011;840;47.980;7.830;2022-08-04T16:10:43;0.90;;;0.90;;
1685;SDS011;840;47.980;7.830;2022-08-04T16:13:12;2.67;;;1.35;;
1685;SDS011;840;47.980;7.830;2022-08-04T16:15:44;6.40;;;1.60;;
1685;SDS011;840;47.980;7.830;2022-08-04T16:18:18;1.15;;;1.15;;
1685;SDS011;840;47.980;7.830;2022-08-04T16:21:06;1.67;;;1.58;;
1685;SDS011;840;47.980;7.830;2022-08-04T16:23:53;2.38;;;1.35;;
1685;SDS011;840;47.980;7.830;2022-08-04T16:29:27;4.35;;;1.50;;
1685;SDS011;840;47.980;7.830;2022-08-04T16:32:07;2.42;;;2.10;;
1685;SDS011;840;47.980;7.830;2022-08-04T16:34:36;1.45;;;1.35;;
1685;SDS011;840;47.980;7.830;2022-08-04T16:37:04;1.20;;;1.20;;
1685;SDS011;840;47.980;7.830;2022-08-04T16:39:33;3.00;;;1.20;;
1685;SDS011;840;47.980;7.830;2022-08-04T16:42:00;1.40;;;1.30;;
1685;SDS011;840;47.980;7.830;2022-08-04T16:44:57;1.30;;;1.20;;
1685;SDS011;840;47.980;7.830;2022-08-04T16:50:29;2.25;;;1.40;;
1685;SDS011;840;47.980;7.830;2022-08-04T16:52:57;2.58;;;1.00;;
1685;SDS011;840;47.980;7.830;2022-08-04T16:55:25;1.83;;;1.25;;